Terminal Aerodrome Forecast
Issued by NWS

Home | Current Version | Previous Version | Text Only | Print | Product List | Glossary On
Versions: 1 2 3 4 5 6 7 8 9 10 11 12 13 14
627
FTUS44 KMAF 181120
TAFPEQ
TAF
KPEQ 181120Z 1812/1912 12004KT P6SM FEW250
     FM190000 13007KT P6SM SCT120 OVC200=

USA.gov is the U.S. government's official web portal to all federal, state and local government web resources and services.